Grand Isle, LA

2:51 AM CDT on August 30, 2015 (GMT -0500)
Grand Isle | Change Station
CLOSE
Current Station
Airport
Location: Grand Isle,
Elevation: 7 ft
Nearby Weather Stations

Elev 7 ft 29.25 °N, 89.97 °W | Updated 21 hours ago

Clear
Clear
77 °F
Feels Like 77 °F
N
0
Wind Variable Wind from East
Gusts mph

Today
High -- | Low -- °F
--% Chance of Precip.
Yesterday
High -- | Low -- °F
Precip. -- in
6:36 AM 7:24 PM
Full, 100% visible
Pressure 29.99 in
Visibility 7.0 miles
Clouds Scattered Clouds 1500 ft
Dew Point 67 °F
Humidity 72%
Rainfall 0.00 in
Snow Depth Not available.
UV 0 out of 12
Pollen 7.30 out of 12
Air Quality Not available.
Flu Activity Not available.
SPECI KAXO 291020Z 19010KT 7SM SCT015 26/22 A2999

More Conditions Fewer Conditions

Pressure 29.99 in
Visibility 7.0 miles
Clouds Scattered Clouds 1500 ft
Dew Point 67 °F
Humidity 72%
Rainfall 0.00 in
Snow Depth Not available.
UV 0 out of 12
Pollen 7.30 out of 12
Air Quality Not available.
Flu Activity Not available.
SPECI KAXO 291020Z 19010KT 7SM SCT015 26/22 A2999

More Conditions Fewer Conditions

10-Day Weather Forecast

Almanac

Astronomy

Aug. 30, 2015 Rise Set
Actual Time 6:36 AM CDT 7:24 PM CDT
Civil Twilight 6:12 AM CDT 7:48 PM CDT
Nautical Twilight 5:43 AM CDT 8:17 PM CDT
Astronomical Twilight 5:14 AM CDT 8:46 PM CDT
Moon 8:09 PM CDT 7:27 AM CDT
Length of Visible Light 13h 36m
Length of Day
12h 47m
Tomorrow will be 1m 40s shorter.
Full, 100% of the Moon is Illuminated
Today
Full
Sep 5
Last Quarter
Sep 13
New
Sep 21
First Quarter
Sep 27
Full

Community

WunderPhotos

Upload Photos

1,850,904 photos uploaded!

WunderBlogs® & News

Nearby

Snow Depth

Station Depth Elevation
No new snow has been reported.

Earthquake Activity

City Distance Mag. Time & Date
No recent earthquake activity has been reported nearby.
Minimum magnitude displayed is 2.5.

Coastal Water Temperatures

Place Temperature
Pilot's Station East, SW Pass, LA 86.0 °F
Grand Isle, LA 86.0 °F
Bayou Gauche, LA 84.9 °F
Shell Beach, LA 82.0 °F

Nearby Weather Stations